• Join FlightAware (Why Join?)
  • Login
  • US Flag 
02:23PM EDT


 

Airport Tracker/Info


-or-


 

Live Flight TrackerFlight Track Log ✈ SWA1034 ✈ 16-Sep-2013 ✈ KLAX - KELP

Flight Track Log - Related Links

Times and Time Zones

All times are in EDT time to prevent confusion due to time zone crossing. See the SWA1034 flight status page for this flight to view local times or setup timezone preferences in your user account.

Time Position Orientation Groundspeed Altitude Reporting Facility
EDT Latitude Longitude Course Direction KTS MPH feet Rate Location/Type
08:36PM 33.9500 -118.4667 99° East 168 193 1,700  Level Southern California TRACON
08:37PM 33.9153 -118.5186 231° Southwest 204 235 3,600 1,980 Climbing Los Angeles Center
08:38PM 33.8631 -118.5678 218° Southwest 247 284 5,600 2,340 Climbing Los Angeles Center
08:39PM 33.7983 -118.5472 165° South 270 311 8,500 3,060 Climbing Los Angeles Center
08:40PM 33.7050 -118.5175 165° South 295 339 12,000 3,000 Climbing Los Angeles Center
08:41PM 33.6683 -118.4236 121° Southeast 319 367 14,700 2,160 Climbing Los Angeles Center
08:42PM 33.8348 -117.5745 99° East  Level Estimated
08:42PM 33.6443 -118.3719 121° Southeast  Level FlightAware Approximate
08:43PM 33.6444 -118.1894 97° East 388 447 18,800  Level Los Angeles Center
08:44PM 33.6442 -118.0278 90° East 405 466 21,200 2,040 Climbing Los Angeles Center
08:45PM 33.6439 -117.8872 90° East 421 484 23,000 1,500 Climbing Los Angeles Center
08:46PM 33.6433 -117.7406 90° East 437 503 24,400 1,500 Climbing Los Angeles Center
08:47PM 33.6428 -117.5906 90° East 446 513 26,200 1,620 Climbing Los Angeles Center
08:49PM 33.6417 -117.4347 90° East 461 531 27,800 1,680 Climbing Los Angeles Center
08:50PM 33.6403 -117.2400 90° East 481 554 29,700 1,500 Climbing Los Angeles Center
08:51PM 33.6386 -117.0753 91° East 491 565 31,000 1,500 Climbing Los Angeles Center
08:52PM 33.6361 -116.9083 91° East 499 574 32,900 1,620 Climbing Los Angeles Center
08:53PM 33.6381 -116.7389 89° East 501 577 34,400 1,500 Climbing Los Angeles Center
08:54PM 33.6356 -116.5725 91° East 500 575 36,100 1,200 Climbing Los Angeles Center
08:55PM 33.6328 -116.4097 91° East 492 566 37,000 420 Climbing Los Angeles Center
08:56PM 33.6294 -116.2489 91° East 485 558 37,000  Level Los Angeles Center
08:57PM 33.6256 -116.0531 91° East 488 562 37,000  Level Los Angeles Center
08:58PM 33.6222 -115.8933 91° East 480 552 37,000  Level Los Angeles Center
08:59PM 33.6197 -115.7342 91° East 478 550 37,000  Level Los Angeles Center
09:00PM 33.6158 -115.5742 92° East 480 552 37,000  Level Los Angeles Center
09:01PM 33.6106 -115.4136 92° East 482 555 37,000  Level Los Angeles Center
09:02PM 33.5919 -115.2550 98° East 481 554 37,000  Level Los Angeles Center
09:03PM 33.5717 -115.0994 99° East 475 547 37,000  Level Los Angeles Center
09:04PM 33.5436 -114.9094 100° East 481 554 37,000  Level Los Angeles Center
09:05PM 33.5172 -114.7500 101° East 484 557 37,000  Level Los Angeles Center
09:06PM 33.4942 -114.5922 100° East 480 552 37,000  Level Los Angeles Center
09:07PM 33.4733 -114.4375 99° East 475 547 37,000  Level Los Angeles Center
09:08PM 33.4625 -114.3411 98° East 478 550 37,000  Level Albuquerque Center
09:09PM 33.4408 -114.1858 99° East 474 545 37,000  Level Albuquerque Center
09:10PM 33.4131 -113.9994 100° East 474 545 37,000  Level Albuquerque Center
09:11PM 33.3894 -113.8447 100° East 473 544 37,000  Level Albuquerque Center
09:12PM 33.3664 -113.6883 100° East 475 547 37,000  Level Albuquerque Center
09:13PM 33.3417 -113.5333 101° East 474 545 37,000  Level Albuquerque Center
09:14PM 33.3172 -113.3789 101° East 474 545 37,000  Level Albuquerque Center
09:15PM 33.2922 -113.2256 101° East 472 543 37,000  Level Albuquerque Center
09:16PM 33.2681 -113.0703 101° East 472 543 37,000  Level Albuquerque Center
09:17PM 33.2444 -112.9114 100° East 478 550 37,000  Level Albuquerque Center
09:18PM 33.2192 -112.7564 101° East 476 548 37,000  Level Albuquerque Center
09:19PM 33.1897 -112.5753 101° East 475 547 37,000  Level Albuquerque Center
09:20PM 33.1644 -112.4214 101° East 476 548 37,000  Level Albuquerque Center
09:21PM 33.1386 -112.2672 101° East 477 549 37,000  Level Albuquerque Center
09:22PM 33.1131 -112.1133 101° East 477 549 37,000  Level Albuquerque Center
09:23PM 33.0878 -111.9594 101° East 476 548 37,000  Level Albuquerque Center
09:24PM 33.0628 -111.8058 101° East 475 547 37,000  Level Albuquerque Center
09:25PM 33.0311 -111.6236 102° East 473 544 37,000  Level Albuquerque Center
09:26PM 33.0056 -111.4708 101° East 472 543 37,000  Level Albuquerque Center
09:27PM 32.9789 -111.3172 102° East 476 548 37,000  Level Albuquerque Center
09:28PM 32.9528 -111.1631 101° East 476 548 37,000  Level Albuquerque Center
09:29PM 32.9253 -111.0103 102° East 477 549 37,000  Level Albuquerque Center
09:30PM 32.8989 -110.8572 102° East 475 547 37,000  Level Albuquerque Center
09:31PM 32.8708 -110.7044 102° East 475 547 37,000  Level Albuquerque Center
09:32PM 32.8431 -110.5453 102° East 475 547 37,000  Level Albuquerque Center
09:33PM 32.8153 -110.3944 102° East 471 542 37,000  Level Albuquerque Center
09:34PM 32.7828 -110.2114 102° East 473 544 37,000  Level Albuquerque Center
09:36PM 32.7539 -110.0589 103° East 473 544 37,000  Level Albuquerque Center
09:37PM 32.7236 -109.9064 103° East 477 549 37,000  Level Albuquerque Center
09:38PM 32.6947 -109.7556 103° East 474 545 37,000  Level Albuquerque Center
09:39PM 32.6669 -109.6047 102° East 471 542 37,000  Level Albuquerque Center
09:40PM 32.6383 -109.4536 103° East 472 543 37,000  Level Albuquerque Center
09:41PM 32.6100 -109.3017 102° East 475 547 37,000 -300 Level Albuquerque Center
09:42PM 32.5756 -109.1217 103° East 474 545 36,500 -780 Descending Albuquerque Center
09:43PM 32.5458 -108.9708 103° East 474 545 35,500 -960 Descending Albuquerque Center
09:44PM 32.5167 -108.8206 103° East 474 545 34,600 -960 Descending Albuquerque Center
09:45PM 32.4875 -108.6706 103° East 473 544 33,600 -840 Descending Albuquerque Center
09:46PM 32.4583 -108.5225 103° East 467 537 33,000 -300 Descending Albuquerque Center
09:47PM 32.4308 -108.3794 103° East 461 531 33,000  Level Albuquerque Center
09:48PM 32.3956 -108.2053 103° East 456 525 33,000  Level Albuquerque Center
09:49PM 32.3661 -108.0603 103° East 455 524 33,000  Level Albuquerque Center
09:50PM 32.3147 -107.9256 114° Southeast 454 522 33,000  Level Albuquerque Center
09:51PM 32.2661 -107.7883 113° Southeast 454 522 33,000 -1,500 Level Albuquerque Center
09:52PM 32.2161 -107.6522 113° Southeast 455 524 30,000 -3,300 Descending Albuquerque Center
09:53PM 32.1664 -107.5131 113° Southeast 461 531 26,300 -3,660 Descending Albuquerque Center
09:54PM 32.1147 -107.3767 114° Southeast 461 531 22,600 -3,960 Descending Albuquerque Center
09:55PM 32.0522 -107.2094 114° Southeast 443 510 17,900 -4,080 Descending Albuquerque Center
09:55PM 32.0369 -107.1706 115° Southeast 436 502 16,900 -2,940 Descending Albuquerque Center
09:56PM 32.0094 -107.0911 112° Southeast 436 502 15,100 -2,760 Descending Albuquerque Center
09:56PM 32.0039 -107.0558 101° East 401 461 14,400 -2,340 Descending Albuquerque Center
09:57PM 31.9972 -106.9700 95° East 386 444 12,800 -2,160 Descending Albuquerque Center
09:57PM 31.9931 -106.9336 98° East 362 417 12,200 -1,860 Descending Albuquerque Center
09:58PM 31.9906 -106.8519 92° East 371 427 10,900 -1,320 Descending Albuquerque Center
09:58PM 31.9875 -106.8297 99° East 354 407 10,900  Level Albuquerque Center
09:59PM 31.9831 -106.7403 93° East 355 409 10,900 60 Level Albuquerque Center
09:59PM 31.9789 -106.7092 99° East 323 372 11,000 -480 Climbing Albuquerque Center
10:00PM 31.9728 -106.6156 94° East 274 315 10,300 -840 Descending Albuquerque Center
10:01PM 31.9706 -106.5556 92° East 281 323 9,500 -1,320 Descending Albuquerque Center
10:01PM 31.9675 -106.5269 97° East 273 314 9,000 -600 Descending Albuquerque Center
10:02PM 31.9642 -106.4669 94° East 274 315 8,900  Descending Albuquerque Center
10:02PM 31.9622 -106.4381 95° East 272 313 9,000  Climbing Albuquerque Center
10:03PM 31.9594 -106.3853 94° East 252 290 8,900  Descending Albuquerque Center
10:03PM 31.9567 -106.3594 97° East 233 268 9,000 -1,140 Climbing Albuquerque Center
10:04PM 31.9353 -106.3067 116° Southeast 235 270 7,800 -1,140 Descending Albuquerque Center
10:04PM 31.9250 -106.3022 160° South 230 265 7,900 240 Climbing Albuquerque Center
10:05PM 31.8969 -106.2722 138° Southeast 205 236 8,100 -240 Climbing Albuquerque Center
10:05PM 31.8822 -106.2678 166° South 144 166 7,700 -2,220 Descending Albuquerque Center
10:06PM 31.8678 -106.3022 244° Southwest 164 189 5,900 -2,100 Descending Albuquerque Center
10:06PM 31.8647 -106.3122 250° West 165 190 5,600 -1,380 Descending Albuquerque Center
10:07PM 31.8411 -106.3439 229° Southwest 162 186 4,500 -1,260 Descending Albuquerque Center
10:07PM 31.8358 -106.3519 232° Southwest 158 182 4,300 -720 Descending Albuquerque Center
10:08PM 31.8172 -106.3761 228° Southwest 153 176 3,800 -600 Descending Albuquerque Center
10:10PM 31.8072 -106.3764 229° Southwest  Level Estimated
10:17PM 31.8072 -106.3764 229° Southwest  Level Estimated
10:18PM 31.8072 -106.3764 229° Southwest  Level Estimated
10:19PM 31.8072 -106.3764 229° Southwest  Level Estimated